Time;durP1;ratioP1;P1;durP2;ratioP2;P2;SDS_P1;SDS_P2;PMS_P1;PMS_P2;Temp;Humidity;BMP_temperature;BMP_pressure;BME280_temperature;BME280_humidity;BME280_pressure;Samples;Min_cycle;Max_cycle;Signal;HPM_P1;HPM_P2
2024/01/10 00:01:56;;;;;;;52.63;24.60;;;-8.20;99.90;;;;;;5041638;28;20036;-79
2024/01/10 00:04:21;;;;;;;49.97;24.70;;;-8.20;99.90;;;;;;5041654;28;20021;-78
2024/01/10 00:06:47;;;;;;;48.20;23.20;;;-8.20;99.90;;;;;;5042012;28;20029;-78
2024/01/10 00:09:12;;;;;;;46.83;23.03;;;-8.20;99.90;;;;;;5042002;28;20033;-77
2024/01/10 00:11:38;;;;;;;53.33;23.90;;;-8.10;99.90;;;;;;5044525;28;20029;-78
2024/01/10 00:14:03;;;;;;;58.27;23.40;;;-8.10;99.90;;;;;;5043036;28;20025;-76
2024/01/10 00:16:29;;;;;;;52.37;24.03;;;-8.00;99.90;;;;;;5042674;28;20044;-78
2024/01/10 00:18:55;;;;;;;54.43;23.27;;;-8.00;99.90;;;;;;5043038;28;20118;-78
2024/01/10 00:21:20;;;;;;;52.40;24.23;;;-8.00;99.90;;;;;;5044558;28;20021;-78
2024/01/10 00:23:46;;;;;;;46.07;22.27;;;-7.90;99.90;;;;;;5043262;28;20025;-79
2024/01/10 00:26:11;;;;;;;48.47;22.43;;;-7.90;99.90;;;;;;5042200;28;20025;-79
2024/01/10 00:28:37;;;;;;;50.97;24.37;;;-7.80;99.90;;;;;;5043059;28;20047;-78
2024/01/10 00:31:02;;;;;;;44.10;22.43;;;-7.80;99.90;;;;;;5043073;28;20049;-78
2024/01/10 00:33:28;;;;;;;49.87;22.17;;;-7.70;99.90;;;;;;5042663;28;20043;-79
2024/01/10 00:35:54;;;;;;;50.30;22.30;;;-7.70;99.90;;;;;;5043123;28;20180;-78
2024/01/10 00:38:20;;;;;;;49.43;23.57;;;-7.60;99.90;;;;;;5042726;28;20364;-78
2024/01/10 00:40:45;;;;;;;46.10;22.80;;;-7.60;99.90;;;;;;5041363;28;20259;-79
2024/01/10 00:43:11;;;;;;;48.50;23.50;;;-7.60;99.90;;;;;;5042088;28;20117;-78
2024/01/10 00:45:36;;;;;;;45.07;22.73;;;-7.50;99.90;;;;;;5042416;28;20128;-78
2024/01/10 00:48:02;;;;;;;51.40;24.07;;;-7.40;99.90;;;;;;5042475;28;20076;-78
2024/01/10 00:50:28;;;;;;;52.43;24.80;;;-7.30;99.90;;;;;;5042083;28;21205;-79
2024/01/10 00:52:53;;;;;;;49.43;23.30;;;-7.30;99.90;;;;;;5041932;28;20463;-78
2024/01/10 00:55:19;;;;;;;52.70;25.43;;;-7.20;99.90;;;;;;5042273;28;20017;-77
2024/01/10 00:57:45;;;;;;;58.43;24.47;;;-7.20;99.90;;;;;;5041424;28;20040;-79
2024/01/10 01:00:11;;;;;;;57.03;25.27;;;-7.20;99.90;;;;;;5040772;28;20190;-78
2024/01/10 01:02:39;;;;;;;53.27;23.23;;;-7.20;99.90;;;;;;5041418;28;20029;-78
2024/01/10 01:05:05;;;;;;;50.53;24.83;;;-7.20;99.90;;;;;;5041795;28;20255;-79
2024/01/10 01:07:30;;;;;;;49.23;24.43;;;-7.20;99.90;;;;;;5039925;28;20291;-78
2024/01/10 01:09:56;;;;;;;51.83;23.77;;;-7.20;99.90;;;;;;5042185;28;20112;-78
2024/01/10 01:12:21;;;;;;;53.57;24.80;;;-7.10;99.90;;;;;;5041098;28;20365;-78
2024/01/10 01:14:47;;;;;;;50.10;23.80;;;-7.10;99.90;;;;;;5041155;28;20036;-78
2024/01/10 01:17:12;;;;;;;46.53;22.93;;;-7.10;99.90;;;;;;5041688;28;20029;-78
2024/01/10 01:19:38;;;;;;;50.03;24.40;;;-7.10;99.90;;;;;;5039398;28;20021;-79
2024/01/10 01:22:03;;;;;;;47.87;22.20;;;-7.10;99.90;;;;;;5043547;28;20080;-78
2024/01/10 01:24:29;;;;;;;49.63;24.63;;;-7.10;99.90;;;;;;5046050;28;20048;-77
2024/01/10 01:26:54;;;;;;;48.20;24.17;;;-7.10;99.90;;;;;;5045011;28;20062;-79
2024/01/10 01:29:20;;;;;;;53.70;25.10;;;-7.00;99.90;;;;;;5045933;28;20104;-79
2024/01/10 01:31:46;;;;;;;51.43;23.17;;;-7.00;99.90;;;;;;5045975;28;20025;-80
2024/01/10 01:34:13;;;;;;;50.67;24.13;;;-7.00;99.90;;;;;;5046033;28;20298;-79
2024/01/10 01:36:39;;;;;;;47.83;23.10;;;-7.00;99.90;;;;;;5044294;28;20276;-78
2024/01/10 01:39:05;;;;;;;52.37;23.47;;;-6.90;99.90;;;;;;5044569;28;20322;-79
2024/01/10 01:41:31;;;;;;;47.80;24.20;;;-6.90;99.90;;;;;;5045205;28;20024;-79
2024/01/10 01:43:56;;;;;;;53.03;23.90;;;-6.80;99.90;;;;;;5044136;28;20858;-79
2024/01/10 01:46:22;;;;;;;51.00;24.53;;;-6.80;99.90;;;;;;5044416;28;21086;-79
2024/01/10 01:48:49;;;;;;;53.70;23.43;;;-6.70;99.90;;;;;;5043870;28;20036;-77
2024/01/10 01:51:16;;;;;;;47.77;23.10;;;-6.70;99.90;;;;;;5044871;28;20621;-76
2024/01/10 01:53:44;;;;;;;46.53;24.70;;;-6.60;99.90;;;;;;5043490;28;20825;-78
2024/01/10 01:56:12;;;;;;;48.40;23.37;;;-6.50;99.90;;;;;;5043402;28;20283;-77
2024/01/10 01:58:38;;;;;;;52.30;24.47;;;-6.50;99.90;;;;;;5045448;28;20325;-78
2024/01/10 02:01:05;;;;;;;50.50;24.90;;;-6.50;99.90;;;;;;5045216;28;20278;-79
2024/01/10 02:03:34;;;;;;;57.43;25.30;;;-6.40;99.90;;;;;;5046745;28;20255;-79
2024/01/10 02:06:03;;;;;;;55.27;25.97;;;-6.40;99.90;;;;;;5045621;28;20738;-79
2024/01/10 02:08:33;;;;;;;51.23;25.17;;;-6.30;99.90;;;;;;5045074;28;20287;-79
2024/01/10 02:11:00;;;;;;;57.63;25.47;;;-6.30;99.90;;;;;;5043897;28;20267;-79
2024/01/10 02:13:26;;;;;;;60.33;26.13;;;-6.20;99.90;;;;;;5045349;28;20343;-78
2024/01/10 02:15:52;;;;;;;55.43;25.40;;;-6.20;99.90;;;;;;5043726;28;20120;-79
2024/01/10 02:18:17;;;;;;;62.67;27.73;;;-6.10;99.90;;;;;;5046374;28;20036;-80
2024/01/10 02:20:44;;;;;;;59.47;26.87;;;-6.10;99.90;;;;;;5045230;28;20074;-78
2024/01/10 02:23:10;;;;;;;53.00;24.30;;;-6.00;99.90;;;;;;5047455;28;20068;-77
2024/01/10 02:25:36;;;;;;;50.20;24.37;;;-6.00;99.90;;;;;;5043509;28;20294;-78
2024/01/10 02:28:01;;;;;;;59.80;27.23;;;-6.00;99.90;;;;;;5044408;28;20116;-79
2024/01/10 02:30:27;;;;;;;56.10;25.20;;;-5.90;99.90;;;;;;5045425;28;20064;-78
2024/01/10 02:32:52;;;;;;;59.67;26.17;;;-5.90;99.90;;;;;;5059086;28;20128;-77
2024/01/10 02:35:18;;;;;;;56.97;25.90;;;-5.90;99.90;;;;;;5058472;28;20101;-78
2024/01/10 02:37:44;;;;;;;54.87;26.03;;;-5.80;99.90;;;;;;5044571;28;20036;-78
2024/01/10 02:40:10;;;;;;;55.97;26.80;;;-5.80;99.90;;;;;;5043336;28;20791;-77
2024/01/10 02:42:36;;;;;;;56.00;25.40;;;-5.80;99.90;;;;;;5043099;28;20033;-78
2024/01/10 02:45:02;;;;;;;59.47;25.27;;;-5.80;99.90;;;;;;5042952;28;20278;-79
2024/01/10 02:47:29;;;;;;;57.33;26.57;;;-5.80;99.90;;;;;;5043696;28;20051;-79
2024/01/10 02:49:55;;;;;;;59.87;26.80;;;-5.70;99.90;;;;;;5043668;28;20061;-79
2024/01/10 02:52:20;;;;;;;59.20;27.00;;;-5.80;99.90;;;;;;5042398;28;20215;-78
2024/01/10 02:54:46;;;;;;;57.90;25.63;;;-5.70;99.90;;;;;;5044382;28;20021;-79
2024/01/10 02:57:13;;;;;;;58.77;27.10;;;-5.70;99.90;;;;;;5043395;28;20044;-79
2024/01/10 02:59:38;;;;;;;60.73;27.23;;;-5.70;99.90;;;;;;5043475;28;20036;-77
2024/01/10 03:02:04;;;;;;;62.40;27.07;;;-5.70;99.90;;;;;;5042628;28;20039;-79
2024/01/10 03:04:29;;;;;;;59.43;27.20;;;-5.70;99.90;;;;;;5044098;28;20029;-79
2024/01/10 03:06:56;;;;;;;61.93;26.17;;;-5.70;99.90;;;;;;5043470;28;20479;-79
2024/01/10 03:09:23;;;;;;;65.03;26.30;;;-5.70;99.90;;;;;;5043723;28;20040;-79
2024/01/10 03:11:48;;;;;;;69.77;28.50;;;-5.70;99.90;;;;;;5043316;28;20646;-79
2024/01/10 03:14:14;;;;;;;69.20;28.47;;;-5.70;99.90;;;;;;5043315;28;20028;-78
2024/01/10 03:16:39;;;;;;;63.43;27.20;;;-5.70;99.90;;;;;;5043956;28;20036;-79
2024/01/10 03:19:05;;;;;;;66.77;27.47;;;-5.70;99.90;;;;;;5043723;28;20264;-77
2024/01/10 03:21:30;;;;;;;60.47;27.33;;;-5.70;99.90;;;;;;5043682;28;20029;-78
2024/01/10 03:23:58;;;;;;;62.37;28.30;;;-5.70;99.90;;;;;;5042288;28;20021;-78
2024/01/10 03:26:24;;;;;;;58.30;25.73;;;-5.70;99.90;;;;;;5043599;28;20020;-78
2024/01/10 03:28:50;;;;;;;64.80;27.83;;;-5.70;99.90;;;;;;5043297;28;20132;-78
2024/01/10 03:31:16;;;;;;;66.10;27.37;;;-5.70;99.90;;;;;;5042594;28;20953;-78
2024/01/10 03:33:42;;;;;;;60.43;26.33;;;-5.70;99.90;;;;;;5042593;28;20036;-78
2024/01/10 03:36:11;;;;;;;62.87;26.33;;;-5.70;99.90;;;;;;5043753;28;20027;-78
2024/01/10 03:38:37;;;;;;;65.50;26.57;;;-5.70;99.90;;;;;;5043024;28;20025;-78
2024/01/10 03:41:02;;;;;;;62.70;27.57;;;-5.70;99.90;;;;;;5043332;28;20074;-79
2024/01/10 03:43:28;;;;;;;65.77;28.00;;;-5.80;99.90;;;;;;5042168;28;20177;-78
2024/01/10 03:45:53;;;;;;;69.13;28.30;;;-5.70;99.90;;;;;;5041412;28;20115;-78
2024/01/10 03:48:19;;;;;;;60.60;26.10;;;-5.70;99.90;;;;;;5042665;28;20079;-77
2024/01/10 03:50:44;;;;;;;54.57;25.77;;;-5.70;99.90;;;;;;5043890;28;20016;-78
2024/01/10 03:53:10;;;;;;;62.57;26.83;;;-5.70;99.90;;;;;;5043336;28;20021;-78
2024/01/10 03:55:36;;;;;;;65.63;26.73;;;-5.70;99.90;;;;;;5042445;28;20029;-78
2024/01/10 03:58:01;;;;;;;60.07;27.60;;;-5.70;99.90;;;;;;5043150;28;20029;-77
2024/01/10 04:00:27;;;;;;;59.03;24.60;;;-5.70;99.90;;;;;;5042508;28;20028;-80
2024/01/10 04:02:52;;;;;;;61.53;26.37;;;-5.70;99.90;;;;;;5043852;28;20460;-78
2024/01/10 04:05:20;;;;;;;59.20;26.70;;;-5.70;99.90;;;;;;5045428;28;20060;-77
2024/01/10 04:07:45;;;;;;;64.00;26.77;;;-5.70;99.90;;;;;;5044331;28;21467;-77
2024/01/10 04:10:13;;;;;;;57.13;24.73;;;-5.70;99.90;;;;;;5042303;28;20116;-78
2024/01/10 04:12:40;;;;;;;65.07;26.93;;;-5.70;99.90;;;;;;5042794;28;20064;-78
2024/01/10 04:15:06;;;;;;;62.77;25.90;;;-5.70;99.90;;;;;;5043076;28;20268;-77
2024/01/10 04:17:32;;;;;;;56.07;25.47;;;-5.70;99.90;;;;;;5042206;28;20506;-78
2024/01/10 04:19:58;;;;;;;61.93;27.07;;;-5.70;99.90;;;;;;5042592;28;20261;-78
2024/01/10 04:22:24;;;;;;;69.47;30.07;;;-5.60;99.90;;;;;;5042602;28;20885;-78
2024/01/10 04:24:50;;;;;;;64.10;27.47;;;-5.70;99.90;;;;;;5042112;28;21412;-78
2024/01/10 04:27:16;;;;;;;72.63;28.57;;;-5.60;99.90;;;;;;5042462;28;20287;-78
2024/01/10 04:29:41;;;;;;;66.90;28.57;;;-5.60;99.90;;;;;;5041423;28;20055;-78
2024/01/10 04:32:07;;;;;;;60.33;26.60;;;-5.60;99.90;;;;;;5041833;28;20029;-79
2024/01/10 04:34:33;;;;;;;61.23;28.47;;;-5.60;99.90;;;;;;5042096;28;20044;-78
2024/01/10 04:36:58;;;;;;;66.77;28.73;;;-5.50;99.90;;;;;;5041130;28;20032;-76
2024/01/10 04:39:24;;;;;;;71.47;28.60;;;-5.50;99.90;;;;;;5042122;28;20025;-78
2024/01/10 04:41:50;;;;;;;64.77;26.70;;;-5.50;99.90;;;;;;5042334;28;20029;-77
2024/01/10 04:44:15;;;;;;;61.13;25.90;;;-5.50;99.90;;;;;;5042470;28;20041;-79
2024/01/10 04:46:41;;;;;;;67.57;28.13;;;-5.50;99.90;;;;;;5040627;28;20037;-78
2024/01/10 04:49:07;;;;;;;66.30;27.90;;;-5.50;99.90;;;;;;5041125;28;20033;-78
2024/01/10 04:51:33;;;;;;;67.50;27.60;;;-5.50;99.90;;;;;;5041127;28;20164;-77
2024/01/10 04:53:58;;;;;;;62.53;27.00;;;-5.50;99.90;;;;;;5040178;28;20492;-78
2024/01/10 04:56:25;;;;;;;67.63;31.10;;;-5.50;99.90;;;;;;5041441;28;20032;-78
2024/01/10 04:58:50;;;;;;;66.90;26.60;;;-5.40;99.90;;;;;;5044922;28;20031;-78
2024/01/10 05:01:16;;;;;;;69.37;30.10;;;-5.40;99.90;;;;;;5044772;28;20037;-78
2024/01/10 05:03:42;;;;;;;69.30;29.47;;;-5.40;99.90;;;;;;5044063;28;20653;-78
2024/01/10 05:06:07;;;;;;;67.23;29.93;;;-5.40;99.90;;;;;;5043923;28;20128;-78
2024/01/10 05:08:33;;;;;;;67.00;28.67;;;-5.40;99.90;;;;;;5044797;28;20115;-77
2024/01/10 05:10:58;;;;;;;72.73;29.00;;;-5.40;99.90;;;;;;5043003;28;20048;-77
2024/01/10 05:13:24;;;;;;;69.67;28.03;;;-5.40;99.90;;;;;;5043377;28;20033;-78
2024/01/10 05:15:49;;;;;;;81.10;31.80;;;-5.30;99.90;;;;;;5044175;28;20032;-76
2024/01/10 05:18:16;;;;;;;71.63;29.77;;;-5.30;99.90;;;;;;5043387;28;21025;-78
2024/01/10 05:20:42;;;;;;;70.77;30.93;;;-5.30;99.90;;;;;;5045089;28;20025;-78
2024/01/10 05:23:07;;;;;;;66.97;28.30;;;-5.30;99.90;;;;;;5045705;28;21074;-78
2024/01/10 05:25:33;;;;;;;73.57;30.13;;;-5.30;99.90;;;;;;5047391;28;20462;-79
2024/01/10 05:27:58;;;;;;;76.17;32.03;;;-5.30;99.90;;;;;;5043365;28;20052;-77
2024/01/10 05:30:24;;;;;;;69.47;29.43;;;-5.30;99.90;;;;;;5044501;28;20036;-78
2024/01/10 05:32:49;;;;;;;74.23;33.90;;;-5.20;99.90;;;;;;5044330;28;20060;-79
2024/01/10 05:35:15;;;;;;;68.63;30.73;;;-5.30;99.90;;;;;;5044669;28;20017;-78
2024/01/10 05:37:40;;;;;;;65.47;29.40;;;-5.30;99.90;;;;;;5043281;28;20645;-79
2024/01/10 05:40:07;;;;;;;68.13;29.47;;;-5.20;99.90;;;;;;5043805;28;20043;-76
2024/01/10 05:42:32;;;;;;;63.47;29.47;;;-5.20;99.90;;;;;;5044014;28;20145;-79
2024/01/10 05:44:59;;;;;;;65.60;28.07;;;-5.20;99.90;;;;;;5044872;28;20061;-79
2024/01/10 05:47:25;;;;;;;69.53;28.53;;;-5.20;99.90;;;;;;5043266;28;20076;-78
2024/01/10 05:49:52;;;;;;;71.00;30.57;;;-5.20;99.90;;;;;;5042678;28;20101;-79
2024/01/10 05:52:18;;;;;;;58.80;28.00;;;-5.30;99.90;;;;;;5044195;28;20032;-77
2024/01/10 05:54:44;;;;;;;70.50;28.77;;;-5.30;99.90;;;;;;5043400;28;20178;-77
2024/01/10 05:57:10;;;;;;;67.63;28.93;;;-5.30;99.90;;;;;;5043616;28;20037;-79
2024/01/10 05:59:35;;;;;;;68.27;29.50;;;-5.30;99.90;;;;;;5043783;28;20100;-79
2024/01/10 06:02:02;;;;;;;66.13;29.27;;;-5.30;99.90;;;;;;5045331;28;20103;-78
2024/01/10 06:04:30;;;;;;;64.17;29.97;;;-5.30;99.90;;;;;;5041636;28;20029;-79
2024/01/10 06:06:57;;;;;;;72.30;30.53;;;-5.30;99.90;;;;;;5043255;28;20033;-79
2024/01/10 06:09:22;;;;;;;66.83;30.90;;;-5.30;99.90;;;;;;5044231;28;20025;-79
2024/01/10 06:11:48;;;;;;;72.33;30.23;;;-5.30;99.90;;;;;;5045582;28;20013;-79
2024/01/10 06:14:14;;;;;;;67.57;27.93;;;-5.40;99.90;;;;;;5040921;28;20108;-77
2024/01/10 06:16:39;;;;;;;68.53;28.60;;;-5.40;99.90;;;;;;5043324;28;20913;-78
2024/01/10 06:19:06;;;;;;;67.50;30.70;;;-5.40;99.90;;;;;;5040954;28;20059;-80
2024/01/10 06:21:31;;;;;;;65.93;29.53;;;-5.40;99.90;;;;;;5043335;28;20095;-79
2024/01/10 06:23:57;;;;;;;69.70;30.60;;;-5.40;99.90;;;;;;5043360;28;20025;-79
2024/01/10 06:26:22;;;;;;;65.73;29.87;;;-5.40;99.90;;;;;;5044261;28;20112;-80
2024/01/10 06:28:48;;;;;;;66.90;28.60;;;-5.40;99.90;;;;;;5041747;28;20017;-79
2024/01/10 06:31:14;;;;;;;67.53;29.07;;;-5.30;99.90;;;;;;5044479;28;20024;-79
2024/01/10 06:33:39;;;;;;;67.80;30.07;;;-5.40;99.90;;;;;;5043161;28;21352;-78
2024/01/10 06:36:05;;;;;;;73.57;31.50;;;-5.30;99.90;;;;;;5040774;28;20518;-79
2024/01/10 06:38:31;;;;;;;68.17;29.73;;;-5.30;99.90;;;;;;5041674;28;20021;-80
2024/01/10 06:40:56;;;;;;;63.67;29.63;;;-5.40;99.90;;;;;;5043429;28;20054;-79
2024/01/10 06:43:22;;;;;;;69.80;29.60;;;-5.40;99.90;;;;;;5042424;28;20024;-78
2024/01/10 06:45:48;;;;;;;68.03;29.33;;;-5.40;99.90;;;;;;5040763;28;20497;-79
2024/01/10 06:48:14;;;;;;;69.53;29.80;;;-5.40;99.90;;;;;;5044883;28;20033;-78
2024/01/10 06:50:40;;;;;;;66.57;28.37;;;-5.40;99.90;;;;;;5045382;28;20089;-79
2024/01/10 06:53:06;;;;;;;62.90;27.23;;;-5.40;99.90;;;;;;5053296;28;20025;-78
2024/01/10 06:55:32;;;;;;;75.63;30.20;;;-5.50;99.90;;;;;;5057278;28;20020;-78
2024/01/10 06:57:57;;;;;;;64.07;29.43;;;-5.50;99.90;;;;;;5057863;28;20045;-77
2024/01/10 07:00:23;;;;;;;69.73;30.03;;;-5.50;99.90;;;;;;5044194;28;20029;-79
2024/01/10 07:02:49;;;;;;;64.43;27.43;;;-5.50;99.90;;;;;;5043054;28;20025;-79
2024/01/10 07:05:15;;;;;;;70.17;29.03;;;-5.60;99.90;;;;;;5044142;28;20189;-80
2024/01/10 07:07:41;;;;;;;66.83;29.30;;;-5.60;99.90;;;;;;5043969;28;20460;-79
2024/01/10 07:10:07;;;;;;;67.63;29.87;;;-5.60;99.90;;;;;;5043961;28;20037;-78
2024/01/10 07:12:34;;;;;;;66.20;29.37;;;-5.60;99.90;;;;;;5038450;28;20036;-79
2024/01/10 07:15:00;;;;;;;69.73;28.87;;;-5.70;99.90;;;;;;5036824;28;20033;-78
2024/01/10 07:17:25;;;;;;;67.17;29.43;;;-5.70;99.90;;;;;;5041632;28;20028;-80
2024/01/10 07:19:51;;;;;;;68.10;28.70;;;-5.70;99.90;;;;;;5043769;28;20043;-82
2024/01/10 07:22:19;;;;;;;66.57;29.47;;;-5.70;99.90;;;;;;5038151;28;20071;-80
2024/01/10 07:24:46;;;;;;;65.50;28.67;;;-5.70;99.90;;;;;;5037282;28;20067;-78
2024/01/10 07:27:14;;;;;;;60.37;27.93;;;-5.70;99.90;;;;;;5035375;28;20669;-77
2024/01/10 07:29:40;;;;;;;65.37;28.97;;;-5.80;99.90;;;;;;5036295;28;20029;-77
2024/01/10 07:32:10;;;;;;;63.83;30.73;;;-5.80;99.90;;;;;;5035349;28;20037;-77
2024/01/10 07:34:37;;;;;;;63.80;28.57;;;-5.80;99.90;;;;;;5035914;28;20130;-77
2024/01/10 07:37:03;;;;;;;68.50;29.30;;;-5.80;99.90;;;;;;5036331;28;20162;-77
2024/01/10 07:39:29;;;;;;;65.77;28.80;;;-5.80;99.90;;;;;;5034919;28;20105;-78
2024/01/10 07:41:55;;;;;;;65.23;28.67;;;-5.80;99.90;;;;;;5035290;28;20092;-77
2024/01/10 07:44:21;;;;;;;61.90;28.70;;;-5.70;99.90;;;;;;5035710;28;20128;-82
2024/01/10 07:46:47;;;;;;;66.10;28.93;;;-5.70;99.90;;;;;;5035353;28;20115;-78
2024/01/10 07:49:13;;;;;;;65.83;31.20;;;-5.70;99.90;;;;;;5037008;28;20033;-83
2024/01/10 07:51:39;;;;;;;68.03;30.93;;;-5.60;99.90;;;;;;5043850;28;20065;-80
2024/01/10 07:54:05;;;;;;;69.67;30.03;;;-5.60;99.90;;;;;;5035025;28;20402;-76
2024/01/10 07:56:30;;;;;;;67.43;30.50;;;-5.60;99.90;;;;;;5035629;28;20494;-74
2024/01/10 07:58:56;;;;;;;67.80;31.33;;;-5.50;99.90;;;;;;5035527;28;20450;-81
2024/01/10 08:01:21;;;;;;;71.70;31.53;;;-5.50;99.90;;;;;;5039971;28;20037;-79
2024/01/10 08:03:47;;;;;;;75.77;32.03;;;-5.50;99.90;;;;;;5037585;28;20037;-80
2024/01/10 08:06:13;;;;;;;66.70;30.73;;;-5.40;99.90;;;;;;5035132;28;20029;-79
2024/01/10 08:08:39;;;;;;;69.63;29.63;;;-5.40;99.90;;;;;;5036852;28;20037;-79
2024/01/10 08:11:05;;;;;;;67.47;30.70;;;-5.40;99.90;;;;;;5037562;28;21459;-79
2024/01/10 08:13:31;;;;;;;69.23;33.53;;;-5.30;99.90;;;;;;5038314;28;20028;-81
2024/01/10 08:15:56;;;;;;;75.90;33.20;;;-5.40;99.90;;;;;;5040515;28;20021;-82
2024/01/10 08:18:23;;;;;;;76.40;30.87;;;-5.40;99.90;;;;;;5039251;28;20029;-79
2024/01/10 08:20:48;;;;;;;77.43;36.00;;;-5.30;99.90;;;;;;5038761;28;20021;-80
2024/01/10 08:23:14;;;;;;;69.00;31.93;;;-5.30;99.90;;;;;;5038029;28;21383;-81
2024/01/10 08:25:40;;;;;;;69.03;31.23;;;-5.30;99.90;;;;;;5039126;28;20041;-79
2024/01/10 08:28:06;;;;;;;68.60;31.80;;;-5.20;99.90;;;;;;5039545;28;20479;-80
2024/01/10 08:30:32;;;;;;;71.73;31.67;;;-5.20;99.90;;;;;;5040127;28;20083;-80
2024/01/10 08:32:58;;;;;;;68.70;32.27;;;-5.20;99.90;;;;;;5042278;28;20029;-79
2024/01/10 08:35:23;;;;;;;71.83;31.90;;;-5.10;99.90;;;;;;5045346;28;20021;-78
2024/01/10 08:37:49;;;;;;;71.83;30.90;;;-5.10;99.90;;;;;;5041488;28;20466;-79
2024/01/10 08:40:15;;;;;;;72.67;30.67;;;-5.10;99.90;;;;;;5043445;28;20128;-80
2024/01/10 08:42:42;;;;;;;69.53;30.93;;;-5.10;99.90;;;;;;5042538;28;20036;-79
2024/01/10 08:45:09;;;;;;;69.30;29.80;;;-5.10;99.90;;;;;;5042431;28;20504;-80
2024/01/10 08:47:35;;;;;;;64.70;29.63;;;-5.00;99.90;;;;;;5043370;28;21045;-80
2024/01/10 08:50:03;;;;;;;65.97;30.77;;;-5.00;99.90;;;;;;5043526;28;20096;-79
2024/01/10 08:52:28;;;;;;;63.40;28.37;;;-5.00;99.90;;;;;;5043304;28;20033;-79
2024/01/10 08:54:54;;;;;;;64.13;28.17;;;-5.00;99.90;;;;;;5044193;28;20051;-80
2024/01/10 08:57:19;;;;;;;66.67;28.40;;;-4.90;99.90;;;;;;5041981;28;20032;-80
2024/01/10 08:59:45;;;;;;;65.93;28.63;;;-4.90;99.90;;;;;;5042438;28;20048;-80
2024/01/10 09:02:12;;;;;;;76.37;33.10;;;-4.90;99.90;;;;;;5045834;28;20479;-80
2024/01/10 09:04:37;;;;;;;67.27;29.70;;;-4.90;99.90;;;;;;5042981;28;20036;-80
2024/01/10 09:07:03;;;;;;;61.77;26.50;;;-4.90;99.90;;;;;;5043665;28;20118;-80
2024/01/10 09:09:28;;;;;;;68.03;27.30;;;-4.90;99.90;;;;;;5043366;28;20025;-80
2024/01/10 09:11:54;;;;;;;72.17;28.77;;;-4.90;99.90;;;;;;5041877;28;20017;-80
2024/01/10 09:14:20;;;;;;;61.30;26.73;;;-4.80;99.90;;;;;;5040415;28;20025;-80
2024/01/10 09:16:46;;;;;;;60.67;24.97;;;-4.80;99.90;;;;;;5041556;28;20071;-80
2024/01/10 09:19:11;;;;;;;66.97;27.83;;;-4.70;99.90;;;;;;5047100;28;20068;-80
2024/01/10 09:21:37;;;;;;;67.73;27.63;;;-4.70;99.90;;;;;;5041908;28;20028;-80
2024/01/10 09:24:05;;;;;;;65.87;27.47;;;-4.70;99.90;;;;;;5039914;28;20013;-80
2024/01/10 09:26:31;;;;;;;67.13;27.33;;;-4.70;99.90;;;;;;5041759;28;20116;-80
2024/01/10 09:28:56;;;;;;;63.57;27.10;;;-4.60;99.90;;;;;;5038786;28;20074;-80
2024/01/10 09:31:21;;;;;;;58.73;26.10;;;-4.60;99.90;;;;;;5043188;28;20435;-80
2024/01/10 09:33:47;;;;;;;65.77;26.50;;;-4.60;99.90;;;;;;5041102;28;20029;-80
2024/01/10 09:36:14;;;;;;;59.00;24.40;;;-4.50;99.90;;;;;;5042173;28;20029;-80
2024/01/10 09:38:40;;;;;;;61.77;27.43;;;-4.50;99.90;;;;;;5041235;28;20044;-80
2024/01/10 09:41:05;;;;;;;68.23;29.03;;;-4.50;99.90;;;;;;5041900;28;20724;-80
2024/01/10 09:43:33;;;;;;;66.10;28.90;;;-4.40;99.90;;;;;;5038779;28;20052;-80
2024/01/10 09:46:00;;;;;;;63.83;26.97;;;-4.40;99.90;;;;;;5042295;28;20098;-80
2024/01/10 09:48:26;;;;;;;62.43;27.57;;;-4.30;99.90;;;;;;5040146;28;20713;-79
2024/01/10 09:50:52;;;;;;;63.20;26.90;;;-4.30;99.90;;;;;;5042611;28;20029;-79
2024/01/10 09:53:26;;;;;;;61.53;27.53;;;-4.30;99.90;;;;;;5050420;28;20092;-80
2024/01/10 09:55:56;;;;;;;62.03;27.87;;;-4.20;99.90;;;;;;5053827;28;20135;-80
2024/01/10 09:58:23;;;;;;;61.60;25.80;;;-4.10;99.90;;;;;;5044799;28;20037;-80
2024/01/10 10:00:48;;;;;;;59.10;24.77;;;-4.10;99.90;;;;;;5041504;28;20079;-79
2024/01/10 10:03:16;;;;;;;62.20;26.13;;;-4.10;99.90;;;;;;5041040;28;21025;-80
2024/01/10 10:05:42;;;;;;;60.93;25.90;;;-4.00;99.90;;;;;;5043393;28;20025;-80
2024/01/10 10:08:10;;;;;;;65.50;25.90;;;-3.90;99.90;;;;;;5040210;28;20494;-80
2024/01/10 10:10:36;;;;;;;60.33;26.57;;;-3.90;99.90;;;;;;5041888;28;20052;-79
2024/01/10 10:13:02;;;;;;;61.80;27.37;;;-3.80;99.90;;;;;;5040603;28;20107;-80
2024/01/10 10:15:27;;;;;;;64.77;27.80;;;-3.80;99.90;;;;;;5039632;28;20375;-79
2024/01/10 10:17:54;;;;;;;64.47;25.80;;;-3.80;99.90;;;;;;5039892;28;20029;-79
2024/01/10 10:20:25;;;;;;;73.97;27.67;;;-3.70;99.90;;;;;;5041610;28;20037;-80
2024/01/10 10:23:04;;;;;;;68.57;28.87;;;-3.70;99.90;;;;;;5039374;28;20037;-79
2024/01/10 10:25:32;;;;;;;63.83;27.40;;;-3.60;99.90;;;;;;5039825;28;20073;-80
2024/01/10 10:27:58;;;;;;;68.20;28.40;;;-3.60;99.90;;;;;;5040271;28;20076;-80
2024/01/10 10:30:24;;;;;;;64.03;27.13;;;-3.50;99.90;;;;;;5042487;28;20060;-80
2024/01/10 10:32:50;;;;;;;59.77;27.73;;;-3.50;99.90;;;;;;5043251;28;20071;-79
2024/01/10 10:35:18;;;;;;;65.57;27.37;;;-3.40;99.90;;;;;;5039161;28;20029;-80
2024/01/10 10:37:43;;;;;;;58.93;27.13;;;-3.50;99.90;;;;;;5042035;28;20039;-80
2024/01/10 10:40:09;;;;;;;63.30;28.13;;;-3.50;99.90;;;;;;5042872;28;20032;-81
2024/01/10 10:42:39;;;;;;;66.13;28.17;;;-3.50;99.90;;;;;;5042050;28;20038;-81
2024/01/10 10:45:06;;;;;;;61.43;26.43;;;-3.50;99.90;;;;;;5037249;28;20935;-80
2024/01/10 10:47:36;;;;;;;64.57;27.33;;;-3.50;99.90;;;;;;5041731;28;20043;-80
2024/01/10 10:50:03;;;;;;;66.83;28.10;;;-3.60;99.90;;;;;;5042207;28;20021;-81
2024/01/10 10:52:30;;;;;;;69.47;28.97;;;-3.70;99.90;;;;;;5041771;28;20052;-81
2024/01/10 10:54:57;;;;;;;62.90;29.13;;;-3.70;99.90;;;;;;5042599;28;20029;-80
2024/01/10 10:57:27;;;;;;;68.10;27.00;;;-3.70;99.90;;;;;;5043084;28;20037;-80
2024/01/10 10:59:53;;;;;;;68.43;28.60;;;-3.80;99.90;;;;;;5044013;28;20412;-80
2024/01/10 11:02:24;;;;;;;70.57;28.00;;;-3.80;99.90;;;;;;5043560;28;20028;-80
2024/01/10 11:04:53;;;;;;;66.53;29.80;;;-3.90;99.90;;;;;;5044242;28;20025;-80
2024/01/10 11:07:20;;;;;;;63.27;27.03;;;-3.90;99.90;;;;;;5043605;28;20040;-81
2024/01/10 11:09:47;;;;;;;66.07;27.73;;;-3.90;99.90;;;;;;5045709;28;20120;-80
2024/01/10 11:12:54;;;;;;;65.13;28.90;;;-3.80;99.90;;;;;;5046689;28;20025;-80
2024/01/10 11:15:54;;;;;;;67.18;27.70;;;-3.80;99.90;;;;;;5049199;28;20097;-80
2024/01/10 11:18:44;;;;;;;63.90;27.20;;;-3.80;99.90;;;;;;5043445;28;20028;-80
2024/01/10 11:21:36;;;;;;;64.67;28.03;;;-3.80;99.90;;;;;;5042492;28;20037;-80
2024/01/10 11:24:04;;;;;;;65.10;28.63;;;-3.80;99.90;;;;;;5040050;28;20035;-80
2024/01/10 11:26:30;;;;;;;65.97;27.73;;;-3.70;99.90;;;;;;5042610;28;20029;-81
2024/01/10 11:28:57;;;;;;;66.43;27.90;;;-3.80;99.90;;;;;;5042186;28;20033;-81
2024/01/10 11:31:31;;;;;;;60.67;25.67;;;-3.80;99.90;;;;;;5041897;28;20105;-81
2024/01/10 11:33:57;;;;;;;65.07;29.07;;;-3.80;99.90;;;;;;5041638;28;20025;-80
2024/01/10 11:36:28;;;;;;;74.30;31.33;;;-3.80;99.90;;;;;;5040552;28;20170;-81
2024/01/10 11:39:04;;;;;;;73.80;31.63;;;-3.80;99.90;;;;;;5036051;28;20033;-80
2024/01/10 11:41:31;;;;;;;69.87;28.13;;;-3.80;99.90;;;;;;5041960;28;20041;-81
2024/01/10 11:44:11;;;;;;;64.97;28.13;;;-3.80;99.90;;;;;;5042394;28;20416;-81
2024/01/10 11:46:45;;;;;;;66.67;29.13;;;-3.80;99.90;;;;;;5042514;28;20143;-81
2024/01/10 11:49:14;;;;;;;48.83;22.98;;;-3.80;99.90;;;;;;5040525;28;20165;-81
2024/01/10 11:51:42;;;;;;;65.60;25.73;;;-3.80;99.90;;;;;;5043699;28;20082;-80
2024/01/10 11:54:08;;;;;;;69.50;28.73;;;-3.80;99.90;;;;;;5043078;28;20079;-81
2024/01/10 11:56:46;;;;;;;64.03;28.13;;;-3.80;99.90;;;;;;5040706;28;20653;-82
2024/01/10 11:59:13;;;;;;;57.03;25.83;;;-3.70;99.90;;;;;;5042250;28;20537;-81
2024/01/10 12:01:40;;;;;;;62.60;27.27;;;-3.70;99.90;;;;;;5040104;28;20025;-81
2024/01/10 12:04:09;;;;;;;60.43;27.57;;;-3.60;99.90;;;;;;5039563;28;20078;-81
2024/01/10 12:06:36;;;;;;;65.07;27.90;;;-3.70;99.90;;;;;;5040299;28;20037;-81
2024/01/10 12:09:08;;;;;;;59.00;26.10;;;-3.60;99.90;;;;;;5040281;28;20033;-81
2024/01/10 12:11:38;;;;;;;60.30;27.23;;;-3.60;99.90;;;;;;5040719;28;20061;-82
2024/01/10 12:14:04;;;;;;;62.80;26.33;;;-3.60;99.90;;;;;;5041031;28;21207;-82
2024/01/10 12:16:30;;;;;;;68.07;27.87;;;-3.50;99.90;;;;;;5038316;28;20066;-81
2024/01/10 12:18:55;;;;;;;68.57;27.87;;;-3.60;99.90;;;;;;5037136;28;20032;-81
2024/01/10 12:21:21;;;;;;;61.93;28.47;;;-3.50;99.90;;;;;;5039655;28;20033;-81
2024/01/10 12:23:48;;;;;;;64.73;28.57;;;-3.50;99.90;;;;;;5042252;28;20124;-83
2024/01/10 12:26:14;;;;;;;67.77;29.93;;;-3.50;99.90;;;;;;5039158;28;20134;-81